Portada
METAR-TAF:

METAR-TAF

Aeropuertos :

Aeropuerto Internacional de Irkutsk

Irkutsk, Rusia

latitud: 52-16N, longitud: 104-19E, altitud: 513 m

Observación

El informe se hizo hace 40 minutos, a las 14:00 UTC
Viento 6 kt del este
Temperatura -24°C
Humedad 69%
Presión 1030 hPa
Visibilidad 10 km o más
sin nubes por debajo de 1500 m y sin presencia de cumulonimbus.

METAR: UIII 171400Z 08003MPS CAVOK M24/M28 Q1030 R12/820555 NOSIG RMK QFE730/0973

Hora: 22:40 (14:40 UTC)

Pronóstico

El informe se hizo hace 40 minutos, a las 14:00 UTC
Pronóstico válido del 17 a las 15 UTC al 18 a las 15 UTC
Viento 6 kt del este-noreste
Visibilidad 10 km o más
Temporalmente
del 17 a las 15 UTC al 18 a las 03 UTC
Visibilidad: 0300 m
a una altura de 100 ft
niebla engelante, humo
Evolucionando progresivamente
del 18 a las 03 UTC al 18 a las 04 UTC
Viento 12 kt del sur-sureste

TAF: UIII 171400Z 1715/1815 06003MPS 9999 NSC TEMPO 1715/1803 0300 FZFG FU VV001 BECMG 1803/1804 16006MPS

Observaciones y pronósticos meteorológicos de más de 4000 aeropuertos (mensajes METAR y TAF).

Los puntos amarillos y rojos representan las estaciones disponibles.

Ponga el ratón en el punto deseado para ver el nombre de la estación.

Haga clic para ver las observaciones y los pronósticos meteorológicos.

Para cambiar el mapa : haga clic en los botones verdes con una cruz de color negro para hacer un zoom, en el botón verde con un guión para alejar o en las flechas verdes para mapas adyacentes.


METAR-TAF: